METAR Data
IDs: Format: Raw Decoded Include TAF

Data at: 2233 UTC 24 Mar 2019

KGKY 242153Z 15014G22KT 10SM FEW045 SCT060 27/17 A2994 RMK AO2 SLP133 T02720167
KGKY 242053Z 15012G20KT 10SM FEW049 27/16 A2996 RMK AO2 SLP137 T02720161 56022
KGKY 241953Z 17012G18KT 10SM SCT042 BKN055 27/16 A2997 RMK AO2 SLP143 T02670161
KGKY 241853Z 16010KT 10SM BKN046 26/16 A3000 RMK AO2 SLP151 T02610161
KGKY 241753Z 18010KT 10SM BKN030 24/17 A3002 RMK AO2 SLP160 T02440167 10250 20156 58007
KGKY 241703Z 20010G18KT 10SM BKN027 23/16 A3004 RMK AO2 T02330161
KGKY 241653Z 19011KT 10SM SCT027 23/16 A3004 RMK AO2 SLP166 T02280161
KGKY 241649Z 20011G19KT 10SM SCT026 23/16 A3004 RMK AO2
KGKY 241640Z 19014G20KT 10SM BKN026 23/16 A3005 RMK AO2 T02330161
KGKY 241629Z 19009G18KT 10SM SCT026 23/16 A3004 RMK AO2 T02330161
KGKY 241618Z 19012G21KT 10SM BKN026 23/16 A3004 RMK AO2 T02280161
KGKY 241553Z 18015G21KT 10SM FEW022 FEW027 22/16 A3005 RMK AO2 SLP167 T02220161
KGKY 241527Z 18012KT 10SM SCT014 21/17 A3004 RMK AO2 T02110167
KGKY 241453Z 18013G17KT 10SM OVC011 19/16 A3005 RMK AO2 SLP169 T01940161 51009
KGKY 241436Z 18012G18KT 10SM OVC010 19/16 A3005 RMK AO2 T01890161
KGKY 241353Z 17009KT 10SM OVC008 18/16 A3005 RMK AO2 SLP168 T01780161
KGKY 241253Z 16007KT 10SM BKN009 16/15 A3004 RMK AO2 SLP166 T01610150
KGKY 241153Z 16005KT 10SM CLR 16/14 A3002 RMK AO2 SLP160 70003 T01560144 10189 20156 53003
KGKY 241053Z AUTO 16005KT 10SM CLR 16/14 A3001 RMK AO2 SLP157 T01610144
KGKY 240953Z AUTO 16007KT 10SM CLR 17/14 A3001 RMK AO2 SLP154 T01670144
KGKY 240853Z AUTO 17007KT 10SM FEW022 17/14 A3001 RMK AO2 SLP156 T01720144 58002
KGKY 240753Z AUTO 17010KT 10SM CLR 18/14 A3002 RMK AO2 SLP160 T01780144
KGKY 240653Z AUTO 17010G18KT 10SM FEW038 18/14 A3003 RMK AO2 SLP162 T01830144
KGKY 240553Z AUTO 17009KT 10SM BKN037 19/14 A3002 RMK AO2 SLP158 60000 T01940144 10211 20189 402170150 51008
KGKY 240453Z AUTO 17011KT 10SM BKN033 19/14 A3001 RMK AO2 SLP157 T01940144
KGKY 240353Z AUTO 16012G20KT 10SM CLR 19/14 A3000 RMK AO2 SLP154 T01940144
KGKY 240253Z AUTO 16012KT 10SM CLR 19/15 A2999 RMK AO2 SLP151 60000 T01940150 53002
KGKY 240153Z 16012KT 10SM CLR 20/15 A2998 RMK AO2 SLP145 T02000150
KGKY 240053Z 16011KT 10SM CLR 19/16 A2997 RMK AO2 RAE00 SLP144 P0000 T01940156
KGKY 232353Z 18013KT 10SM -RA OVC033 21/15 A2999 RMK AO2 RAB26 SLP148 P0002 60002 T02060150 10217 20189 55000
KGKY 232253Z 18011KT 10SM OVC032 22/15 A2998 RMK AO2 SLP145 T02170150
KGKY 232230Z 17010KT 10SM OVC030 21/15 A2998 RMK AO2 T02110150
KGKY 232153Z 16012KT 10SM OVC027 21/15 A2998 RMK AO2 SLP147 T02110150
KGKY 232053Z 18015G21KT 10SM OVC026 21/15 A2999 RMK AO2 SLP148 T02110150 56026
KGKY 231953Z 17014G22KT 10SM OVC024 21/15 A3000 RMK AO2 SLP154 T02060150
KGKY 231853Z 17015G22KT 10SM OVC020 20/14 A3003 RMK AO2 SLP163 T02000144
KGKY 231753Z 18014G20KT 10SM OVC020 19/14 A3006 RMK AO2 RAB06E19 SLP175 P0000 60001 T01890144 10189 20150 58001
KGKY 231653Z 17010G17KT 10SM BKN023 OVC035 18/13 A3008 RMK AO2 SLP179 T01830133
KGKY 231623Z 17015G21KT 10SM BKN023 OVC038 18/13 A3008 RMK AO2 T01780133
KGKY 231553Z 16012G17KT 10SM FEW021 BKN070 OVC085 18/13 A3008 RMK AO2 RAE16 SLP178 P0000 T01780133
KGKY 231453Z 16009G18KT 7SM -RA BKN041 OVC060 16/13 A3007 RMK AO2 RAB42 SLP177 P0001 60001 T01610128 51011
KGKY 231353Z 17009KT 10SM SCT047 BKN055 OVC085 17/11 A3007 RMK AO2 SLP176 T01670111
KGKY 231253Z 16009KT 10SM BKN042 OVC085 17/10 A3005 RMK AO2 RAB24E35 SLP171 P0000 T01670100
KGKY 231153Z 15006KT 10SM SCT055 SCT070 16/09 A3003 RMK AO2 SLP164 60001 70001 T01560089 10200 20150 53003
KGKY 231053Z AUTO 17007KT 10SM FEW075 16/09 A3001 RMK AO2 SLP158 T01560089